sensor_id;sensor_type;location;lat;lon;timestamp;P1;durP1;ratioP1;P2;durP2;ratioP2
67378;SDS011;54262;44.642;-0.974;2023-12-22T00:02:22;3.10;;;1.90;;
67378;SDS011;54262;44.642;-0.974;2023-12-22T00:04:51;6.47;;;2.55;;
67378;SDS011;54262;44.642;-0.974;2023-12-22T00:07:16;3.58;;;2.08;;
67378;SDS011;54262;44.642;-0.974;2023-12-22T00:09:45;5.38;;;2.38;;
67378;SDS011;54262;44.642;-0.974;2023-12-22T00:12:10;5.30;;;1.85;;
67378;SDS011;54262;44.642;-0.974;2023-12-22T00:14:36;2.63;;;1.60;;
67378;SDS011;54262;44.642;-0.974;2023-12-22T00:17:02;4.32;;;2.20;;
67378;SDS011;54262;44.642;-0.974;2023-12-22T00:19:28;4.35;;;2.00;;
67378;SDS011;54262;44.642;-0.974;2023-12-22T00:21:54;3.95;;;1.75;;
67378;SDS011;54262;44.642;-0.974;2023-12-22T00:24:20;3.50;;;1.77;;
67378;SDS011;54262;44.642;-0.974;2023-12-22T00:26:48;5.75;;;1.90;;
67378;SDS011;54262;44.642;-0.974;2023-12-22T00:29:14;4.32;;;1.98;;
67378;SDS011;54262;44.642;-0.974;2023-12-22T00:31:40;3.20;;;1.63;;
67378;SDS011;54262;44.642;-0.974;2023-12-22T00:34:06;6.00;;;1.67;;
67378;SDS011;54262;44.642;-0.974;2023-12-22T00:36:32;4.20;;;1.95;;
67378;SDS011;54262;44.642;-0.974;2023-12-22T00:39:00;3.08;;;1.48;;
67378;SDS011;54262;44.642;-0.974;2023-12-22T00:41:26;2.13;;;1.40;;
67378;SDS011;54262;44.642;-0.974;2023-12-22T00:43:51;4.95;;;1.88;;
67378;SDS011;54262;44.642;-0.974;2023-12-22T00:46:17;3.75;;;1.73;;
67378;SDS011;54262;44.642;-0.974;2023-12-22T00:48:43;4.70;;;2.03;;
67378;SDS011;54262;44.642;-0.974;2023-12-22T00:51:09;5.38;;;1.83;;
67378;SDS011;54262;44.642;-0.974;2023-12-22T00:53:35;5.13;;;1.88;;
67378;SDS011;54262;44.642;-0.974;2023-12-22T00:56:00;2.45;;;1.40;;
67378;SDS011;54262;44.642;-0.974;2023-12-22T00:58:28;2.53;;;1.70;;
67378;SDS011;54262;44.642;-0.974;2023-12-22T01:00:57;6.35;;;1.80;;
67378;SDS011;54262;44.642;-0.974;2023-12-22T01:03:23;3.50;;;1.55;;
67378;SDS011;54262;44.642;-0.974;2023-12-22T01:05:48;3.78;;;1.52;;
67378;SDS011;54262;44.642;-0.974;2023-12-22T01:08:14;8.63;;;2.70;;
67378;SDS011;54262;44.642;-0.974;2023-12-22T01:10:42;7.32;;;2.72;;
67378;SDS011;54262;44.642;-0.974;2023-12-22T01:13:08;3.35;;;2.00;;
67378;SDS011;54262;44.642;-0.974;2023-12-22T01:15:33;5.90;;;2.03;;
67378;SDS011;54262;44.642;-0.974;2023-12-22T01:17:59;5.80;;;2.35;;
67378;SDS011;54262;44.642;-0.974;2023-12-22T01:20:24;7.63;;;1.90;;
67378;SDS011;54262;44.642;-0.974;2023-12-22T01:22:50;5.55;;;2.05;;
67378;SDS011;54262;44.642;-0.974;2023-12-22T01:25:16;9.02;;;1.92;;
67378;SDS011;54262;44.642;-0.974;2023-12-22T01:27:41;3.83;;;1.83;;
67378;SDS011;54262;44.642;-0.974;2023-12-22T01:30:07;5.18;;;1.30;;
67378;SDS011;54262;44.642;-0.974;2023-12-22T01:32:33;4.63;;;1.60;;
67378;SDS011;54262;44.642;-0.974;2023-12-22T01:35:01;2.50;;;1.73;;
67378;SDS011;54262;44.642;-0.974;2023-12-22T01:37:32;2.85;;;1.17;;
67378;SDS011;54262;44.642;-0.974;2023-12-22T01:39:57;5.20;;;2.25;;
67378;SDS011;54262;44.642;-0.974;2023-12-22T01:42:23;3.55;;;1.27;;
67378;SDS011;54262;44.642;-0.974;2023-12-22T01:44:49;6.93;;;2.25;;
67378;SDS011;54262;44.642;-0.974;2023-12-22T01:47:14;2.45;;;1.15;;
67378;SDS011;54262;44.642;-0.974;2023-12-22T01:49:40;6.75;;;1.98;;
67378;SDS011;54262;44.642;-0.974;2023-12-22T01:52:06;2.67;;;1.60;;
67378;SDS011;54262;44.642;-0.974;2023-12-22T01:54:32;4.88;;;1.35;;
67378;SDS011;54262;44.642;-0.974;2023-12-22T01:56:59;6.03;;;1.67;;
67378;SDS011;54262;44.642;-0.974;2023-12-22T01:59:25;5.53;;;1.50;;
67378;SDS011;54262;44.642;-0.974;2023-12-22T02:01:54;3.22;;;1.73;;
67378;SDS011;54262;44.642;-0.974;2023-12-22T02:04:19;2.50;;;1.27;;
67378;SDS011;54262;44.642;-0.974;2023-12-22T02:06:46;3.00;;;1.38;;
67378;SDS011;54262;44.642;-0.974;2023-12-22T02:09:11;2.75;;;1.50;;
67378;SDS011;54262;44.642;-0.974;2023-12-22T02:11:39;3.90;;;1.45;;
67378;SDS011;54262;44.642;-0.974;2023-12-22T02:14:08;2.08;;;1.27;;
67378;SDS011;54262;44.642;-0.974;2023-12-22T02:16:42;3.13;;;1.10;;
67378;SDS011;54262;44.642;-0.974;2023-12-22T02:22:04;6.22;;;1.50;;
67378;SDS011;54262;44.642;-0.974;2023-12-22T02:24:31;3.80;;;1.45;;
67378;SDS011;54262;44.642;-0.974;2023-12-22T02:27:03;3.30;;;1.42;;
67378;SDS011;54262;44.642;-0.974;2023-12-22T02:29:41;2.50;;;1.55;;
67378;SDS011;54262;44.642;-0.974;2023-12-22T02:32:27;4.97;;;1.70;;
67378;SDS011;54262;44.642;-0.974;2023-12-22T02:34:56;2.65;;;1.35;;
67378;SDS011;54262;44.642;-0.974;2023-12-22T02:37:22;2.08;;;1.13;;
67378;SDS011;54262;44.642;-0.974;2023-12-22T02:39:49;3.97;;;1.55;;
67378;SDS011;54262;44.642;-0.974;2023-12-22T02:42:17;1.88;;;0.95;;
67378;SDS011;54262;44.642;-0.974;2023-12-22T02:44:45;3.97;;;1.48;;
67378;SDS011;54262;44.642;-0.974;2023-12-22T02:47:11;2.28;;;1.45;;
67378;SDS011;54262;44.642;-0.974;2023-12-22T02:49:36;5.47;;;1.48;;
67378;SDS011;54262;44.642;-0.974;2023-12-22T02:52:02;2.20;;;0.98;;
67378;SDS011;54262;44.642;-0.974;2023-12-22T02:54:28;2.17;;;1.15;;
67378;SDS011;54262;44.642;-0.974;2023-12-22T02:56:55;2.40;;;1.50;;
67378;SDS011;54262;44.642;-0.974;2023-12-22T02:59:21;2.70;;;1.20;;
67378;SDS011;54262;44.642;-0.974;2023-12-22T03:01:50;4.55;;;1.60;;
67378;SDS011;54262;44.642;-0.974;2023-12-22T03:04:18;4.18;;;1.25;;
67378;SDS011;54262;44.642;-0.974;2023-12-22T03:06:43;3.20;;;1.13;;
67378;SDS011;54262;44.642;-0.974;2023-12-22T03:09:09;1.88;;;1.23;;
67378;SDS011;54262;44.642;-0.974;2023-12-22T03:11:35;2.28;;;1.17;;
67378;SDS011;54262;44.642;-0.974;2023-12-22T03:14:02;5.88;;;1.23;;
67378;SDS011;54262;44.642;-0.974;2023-12-22T03:16:28;2.88;;;1.60;;
67378;SDS011;54262;44.642;-0.974;2023-12-22T03:18:54;2.78;;;1.05;;
67378;SDS011;54262;44.642;-0.974;2023-12-22T03:21:19;4.95;;;1.20;;
67378;SDS011;54262;44.642;-0.974;2023-12-22T03:23:45;2.05;;;1.15;;
67378;SDS011;54262;44.642;-0.974;2023-12-22T03:26:11;5.10;;;1.20;;
67378;SDS011;54262;44.642;-0.974;2023-12-22T03:28:36;2.30;;;1.15;;
67378;SDS011;54262;44.642;-0.974;2023-12-22T03:31:03;2.25;;;1.23;;
67378;SDS011;54262;44.642;-0.974;2023-12-22T03:33:29;2.30;;;1.00;;
67378;SDS011;54262;44.642;-0.974;2023-12-22T03:35:54;3.95;;;1.92;;
67378;SDS011;54262;44.642;-0.974;2023-12-22T03:38:20;2.67;;;1.20;;
67378;SDS011;54262;44.642;-0.974;2023-12-22T03:40:46;2.67;;;1.55;;
67378;SDS011;54262;44.642;-0.974;2023-12-22T03:43:11;2.65;;;1.33;;
67378;SDS011;54262;44.642;-0.974;2023-12-22T03:45:37;2.25;;;1.20;;
67378;SDS011;54262;44.642;-0.974;2023-12-22T03:48:03;3.67;;;1.60;;
67378;SDS011;54262;44.642;-0.974;2023-12-22T03:50:29;2.97;;;1.50;;
67378;SDS011;54262;44.642;-0.974;2023-12-22T03:52:54;4.10;;;1.60;;
67378;SDS011;54262;44.642;-0.974;2023-12-22T03:55:20;2.63;;;0.80;;
67378;SDS011;54262;44.642;-0.974;2023-12-22T03:57:45;3.40;;;1.48;;
67378;SDS011;54262;44.642;-0.974;2023-12-22T04:00:11;3.03;;;1.38;;
67378;SDS011;54262;44.642;-0.974;2023-12-22T04:02:38;3.60;;;1.65;;
67378;SDS011;54262;44.642;-0.974;2023-12-22T04:05:07;5.68;;;1.40;;
67378;SDS011;54262;44.642;-0.974;2023-12-22T04:07:35;2.97;;;1.27;;
67378;SDS011;54262;44.642;-0.974;2023-12-22T04:10:01;4.05;;;1.65;;
67378;SDS011;54262;44.642;-0.974;2023-12-22T04:12:27;2.53;;;1.30;;
67378;SDS011;54262;44.642;-0.974;2023-12-22T04:14:55;4.07;;;1.42;;
67378;SDS011;54262;44.642;-0.974;2023-12-22T04:17:20;8.10;;;2.22;;
67378;SDS011;54262;44.642;-0.974;2023-12-22T04:19:46;3.00;;;1.52;;
67378;SDS011;54262;44.642;-0.974;2023-12-22T04:22:12;2.38;;;1.27;;
67378;SDS011;54262;44.642;-0.974;2023-12-22T04:24:37;3.13;;;1.10;;
67378;SDS011;54262;44.642;-0.974;2023-12-22T04:27:03;4.07;;;1.48;;
67378;SDS011;54262;44.642;-0.974;2023-12-22T04:29:29;1.45;;;1.13;;
67378;SDS011;54262;44.642;-0.974;2023-12-22T04:31:55;2.53;;;1.42;;
67378;SDS011;54262;44.642;-0.974;2023-12-22T04:34:20;1.88;;;1.17;;
67378;SDS011;54262;44.642;-0.974;2023-12-22T04:36:46;3.28;;;1.10;;
67378;SDS011;54262;44.642;-0.974;2023-12-22T04:39:12;5.18;;;1.50;;
67378;SDS011;54262;44.642;-0.974;2023-12-22T04:41:37;1.63;;;1.20;;
67378;SDS011;54262;44.642;-0.974;2023-12-22T04:44:03;3.53;;;1.20;;
67378;SDS011;54262;44.642;-0.974;2023-12-22T04:46:29;5.03;;;1.48;;
67378;SDS011;54262;44.642;-0.974;2023-12-22T04:48:55;3.33;;;1.70;;
67378;SDS011;54262;44.642;-0.974;2023-12-22T04:51:21;2.22;;;1.27;;
67378;SDS011;54262;44.642;-0.974;2023-12-22T04:53:47;3.03;;;1.30;;
67378;SDS011;54262;44.642;-0.974;2023-12-22T04:56:12;2.50;;;1.17;;
67378;SDS011;54262;44.642;-0.974;2023-12-22T04:58:38;1.83;;;1.05;;
67378;SDS011;54262;44.642;-0.974;2023-12-22T05:01:04;1.70;;;0.93;;
67378;SDS011;54262;44.642;-0.974;2023-12-22T05:03:29;2.72;;;1.05;;
67378;SDS011;54262;44.642;-0.974;2023-12-22T05:05:57;2.70;;;1.13;;
67378;SDS011;54262;44.642;-0.974;2023-12-22T05:08:23;4.68;;;1.30;;
67378;SDS011;54262;44.642;-0.974;2023-12-22T05:10:49;5.47;;;1.45;;
67378;SDS011;54262;44.642;-0.974;2023-12-22T05:13:14;2.88;;;1.23;;
67378;SDS011;54262;44.642;-0.974;2023-12-22T05:15:42;8.18;;;1.80;;
67378;SDS011;54262;44.642;-0.974;2023-12-22T05:18:08;3.17;;;1.45;;
67378;SDS011;54262;44.642;-0.974;2023-12-22T05:20:34;5.03;;;1.73;;
67378;SDS011;54262;44.642;-0.974;2023-12-22T05:22:59;5.07;;;1.42;;
67378;SDS011;54262;44.642;-0.974;2023-12-22T05:25:25;2.25;;;1.13;;
67378;SDS011;54262;44.642;-0.974;2023-12-22T05:27:51;3.22;;;1.52;;
67378;SDS011;54262;44.642;-0.974;2023-12-22T05:30:17;2.17;;;1.15;;
67378;SDS011;54262;44.642;-0.974;2023-12-22T05:32:42;3.13;;;1.10;;
67378;SDS011;54262;44.642;-0.974;2023-12-22T05:35:09;3.85;;;1.48;;
67378;SDS011;54262;44.642;-0.974;2023-12-22T05:37:35;7.22;;;1.55;;
67378;SDS011;54262;44.642;-0.974;2023-12-22T05:40:01;7.97;;;1.52;;
67378;SDS011;54262;44.642;-0.974;2023-12-22T05:42:27;2.97;;;1.40;;
67378;SDS011;54262;44.642;-0.974;2023-12-22T05:44:53;2.50;;;1.27;;
67378;SDS011;54262;44.642;-0.974;2023-12-22T05:47:18;2.25;;;1.05;;
67378;SDS011;54262;44.642;-0.974;2023-12-22T05:49:44;3.47;;;1.80;;
67378;SDS011;54262;44.642;-0.974;2023-12-22T05:52:11;3.03;;;1.05;;
67378;SDS011;54262;44.642;-0.974;2023-12-22T05:54:37;2.80;;;1.25;;
67378;SDS011;54262;44.642;-0.974;2023-12-22T05:57:03;3.42;;;1.17;;
67378;SDS011;54262;44.642;-0.974;2023-12-22T05:59:31;6.10;;;1.45;;
67378;SDS011;54262;44.642;-0.974;2023-12-22T06:01:57;1.92;;;1.27;;
67378;SDS011;54262;44.642;-0.974;2023-12-22T06:04:24;4.32;;;1.75;;
67378;SDS011;54262;44.642;-0.974;2023-12-22T06:06:53;2.13;;;0.85;;
67378;SDS011;54262;44.642;-0.974;2023-12-22T06:09:18;2.13;;;0.90;;
67378;SDS011;54262;44.642;-0.974;2023-12-22T06:11:46;3.25;;;1.13;;
67378;SDS011;54262;44.642;-0.974;2023-12-22T06:14:11;2.33;;;1.10;;
67378;SDS011;54262;44.642;-0.974;2023-12-22T06:16:39;3.08;;;1.40;;
67378;SDS011;54262;44.642;-0.974;2023-12-22T06:19:05;2.75;;;1.23;;
67378;SDS011;54262;44.642;-0.974;2023-12-22T06:21:31;1.83;;;0.85;;
67378;SDS011;54262;44.642;-0.974;2023-12-22T06:23:57;1.90;;;1.40;;
67378;SDS011;54262;44.642;-0.974;2023-12-22T06:26:23;3.00;;;1.25;;
67378;SDS011;54262;44.642;-0.974;2023-12-22T06:28:48;2.03;;;1.15;;
67378;SDS011;54262;44.642;-0.974;2023-12-22T06:31:18;2.85;;;1.52;;
67378;SDS011;54262;44.642;-0.974;2023-12-22T06:33:48;3.00;;;1.25;;
67378;SDS011;54262;44.642;-0.974;2023-12-22T06:36:21;1.25;;;0.88;;
67378;SDS011;54262;44.642;-0.974;2023-12-22T06:38:47;2.05;;;1.20;;
67378;SDS011;54262;44.642;-0.974;2023-12-22T06:41:22;2.25;;;0.90;;
67378;SDS011;54262;44.642;-0.974;2023-12-22T06:43:49;1.52;;;0.88;;
67378;SDS011;54262;44.642;-0.974;2023-12-22T06:46:19;1.92;;;1.10;;
67378;SDS011;54262;44.642;-0.974;2023-12-22T06:48:56;3.83;;;1.45;;
67378;SDS011;54262;44.642;-0.974;2023-12-22T06:51:22;9.88;;;1.60;;
67378;SDS011;54262;44.642;-0.974;2023-12-22T06:53:52;1.70;;;1.02;;
67378;SDS011;54262;44.642;-0.974;2023-12-22T06:56:20;5.88;;;1.38;;
67378;SDS011;54262;44.642;-0.974;2023-12-22T06:58:47;2.58;;;1.25;;
67378;SDS011;54262;44.642;-0.974;2023-12-22T07:01:32;2.97;;;1.27;;
67378;SDS011;54262;44.642;-0.974;2023-12-22T07:04:00;2.67;;;1.25;;
67378;SDS011;54262;44.642;-0.974;2023-12-22T07:06:28;4.60;;;1.33;;
67378;SDS011;54262;44.642;-0.974;2023-12-22T07:09:27;3.60;;;1.20;;
67378;SDS011;54262;44.642;-0.974;2023-12-22T07:11:44;3.72;;;0.80;;
67378;SDS011;54262;44.642;-0.974;2023-12-22T07:14:15;2.65;;;1.20;;
67378;SDS011;54262;44.642;-0.974;2023-12-22T07:16:43;1.90;;;0.88;;
67378;SDS011;54262;44.642;-0.974;2023-12-22T07:19:09;5.25;;;1.63;;
67378;SDS011;54262;44.642;-0.974;2023-12-22T07:21:41;1.75;;;1.15;;
67378;SDS011;54262;44.642;-0.974;2023-12-22T07:24:07;1.92;;;0.82;;
67378;SDS011;54262;44.642;-0.974;2023-12-22T07:26:33;2.42;;;1.10;;
67378;SDS011;54262;44.642;-0.974;2023-12-22T07:28:59;2.58;;;1.08;;
67378;SDS011;54262;44.642;-0.974;2023-12-22T07:31:25;3.13;;;0.82;;
67378;SDS011;54262;44.642;-0.974;2023-12-22T07:33:51;3.45;;;1.05;;
67378;SDS011;54262;44.642;-0.974;2023-12-22T07:36:17;3.22;;;0.73;;
67378;SDS011;54262;44.642;-0.974;2023-12-22T07:38:46;3.13;;;1.25;;
67378;SDS011;54262;44.642;-0.974;2023-12-22T07:41:12;4.28;;;1.10;;
67378;SDS011;54262;44.642;-0.974;2023-12-22T07:43:38;2.95;;;1.40;;
67378;SDS011;54262;44.642;-0.974;2023-12-22T07:46:03;2.33;;;1.63;;
67378;SDS011;54262;44.642;-0.974;2023-12-22T07:48:29;5.05;;;1.30;;
67378;SDS011;54262;44.642;-0.974;2023-12-22T07:50:55;4.68;;;1.15;;
67378;SDS011;54262;44.642;-0.974;2023-12-22T07:53:21;3.97;;;1.23;;
67378;SDS011;54262;44.642;-0.974;2023-12-22T07:55:47;4.53;;;1.30;;
67378;SDS011;54262;44.642;-0.974;2023-12-22T07:58:13;4.88;;;0.98;;
67378;SDS011;54262;44.642;-0.974;2023-12-22T08:00:38;3.15;;;1.20;;
67378;SDS011;54262;44.642;-0.974;2023-12-22T08:03:07;5.97;;;1.30;;
67378;SDS011;54262;44.642;-0.974;2023-12-22T08:05:33;3.17;;;1.25;;
67378;SDS011;54262;44.642;-0.974;2023-12-22T08:07:59;8.85;;;1.70;;
67378;SDS011;54262;44.642;-0.974;2023-12-22T08:10:27;11.10;;;1.65;;
67378;SDS011;54262;44.642;-0.974;2023-12-22T08:12:52;4.80;;;1.75;;
67378;SDS011;54262;44.642;-0.974;2023-12-22T08:15:18;5.68;;;1.67;;
67378;SDS011;54262;44.642;-0.974;2023-12-22T08:17:46;7.93;;;2.22;;
67378;SDS011;54262;44.642;-0.974;2023-12-22T08:20:20;8.27;;;1.95;;
67378;SDS011;54262;44.642;-0.974;2023-12-22T08:22:46;14.88;;;2.47;;
67378;SDS011;54262;44.642;-0.974;2023-12-22T08:25:12;10.98;;;2.53;;
67378;SDS011;54262;44.642;-0.974;2023-12-22T08:27:38;7.65;;;2.45;;
67378;SDS011;54262;44.642;-0.974;2023-12-22T08:30:04;8.35;;;1.80;;
67378;SDS011;54262;44.642;-0.974;2023-12-22T08:32:30;9.25;;;2.08;;
67378;SDS011;54262;44.642;-0.974;2023-12-22T08:34:56;8.18;;;2.58;;
67378;SDS011;54262;44.642;-0.974;2023-12-22T08:37:21;6.80;;;1.60;;
67378;SDS011;54262;44.642;-0.974;2023-12-22T08:39:47;8.02;;;2.38;;
67378;SDS011;54262;44.642;-0.974;2023-12-22T08:42:13;5.40;;;1.63;;
67378;SDS011;54262;44.642;-0.974;2023-12-22T08:44:39;4.22;;;1.63;;
67378;SDS011;54262;44.642;-0.974;2023-12-22T08:47:05;3.08;;;1.20;;
67378;SDS011;54262;44.642;-0.974;2023-12-22T08:49:31;7.50;;;2.63;;
67378;SDS011;54262;44.642;-0.974;2023-12-22T08:51:56;8.77;;;2.78;;
67378;SDS011;54262;44.642;-0.974;2023-12-22T08:54:22;11.30;;;1.88;;
67378;SDS011;54262;44.642;-0.974;2023-12-22T08:56:47;11.65;;;2.08;;
67378;SDS011;54262;44.642;-0.974;2023-12-22T08:59:13;3.13;;;1.80;;
67378;SDS011;54262;44.642;-0.974;2023-12-22T09:01:39;7.10;;;2.53;;
67378;SDS011;54262;44.642;-0.974;2023-12-22T09:04:06;11.77;;;2.72;;
67378;SDS011;54262;44.642;-0.974;2023-12-22T09:06:31;8.65;;;2.10;;
67378;SDS011;54262;44.642;-0.974;2023-12-22T09:08:57;7.68;;;2.03;;
67378;SDS011;54262;44.642;-0.974;2023-12-22T09:11:26;8.80;;;2.42;;
67378;SDS011;54262;44.642;-0.974;2023-12-22T09:13:51;12.18;;;3.28;;
67378;SDS011;54262;44.642;-0.974;2023-12-22T09:16:23;5.80;;;2.70;;
67378;SDS011;54262;44.642;-0.974;2023-12-22T09:18:54;12.25;;;3.35;;
67378;SDS011;54262;44.642;-0.974;2023-12-22T09:21:20;8.68;;;3.22;;
67378;SDS011;54262;44.642;-0.974;2023-12-22T09:23:46;7.45;;;1.33;;
67378;SDS011;54262;44.642;-0.974;2023-12-22T09:26:12;7.18;;;2.42;;
67378;SDS011;54262;44.642;-0.974;2023-12-22T09:28:39;16.05;;;2.67;;
67378;SDS011;54262;44.642;-0.974;2023-12-22T09:31:06;5.25;;;2.65;;
67378;SDS011;54262;44.642;-0.974;2023-12-22T09:33:32;9.73;;;2.53;;
67378;SDS011;54262;44.642;-0.974;2023-12-22T09:35:58;4.55;;;1.70;;
67378;SDS011;54262;44.642;-0.974;2023-12-22T09:38:24;8.68;;;1.88;;
67378;SDS011;54262;44.642;-0.974;2023-12-22T09:40:50;4.85;;;1.30;;
67378;SDS011;54262;44.642;-0.974;2023-12-22T09:43:16;7.97;;;1.98;;
67378;SDS011;54262;44.642;-0.974;2023-12-22T09:45:45;10.10;;;1.83;;
67378;SDS011;54262;44.642;-0.974;2023-12-22T09:48:12;6.68;;;1.67;;
67378;SDS011;54262;44.642;-0.974;2023-12-22T09:50:42;9.70;;;2.95;;
67378;SDS011;54262;44.642;-0.974;2023-12-22T09:53:14;9.98;;;2.53;;
67378;SDS011;54262;44.642;-0.974;2023-12-22T09:55:45;10.10;;;2.17;;
67378;SDS011;54262;44.642;-0.974;2023-12-22T09:58:12;9.77;;;2.75;;
67378;SDS011;54262;44.642;-0.974;2023-12-22T10:00:40;15.07;;;2.47;;
67378;SDS011;54262;44.642;-0.974;2023-12-22T10:03:07;9.32;;;1.95;;
67378;SDS011;54262;44.642;-0.974;2023-12-22T10:05:34;7.25;;;2.10;;
67378;SDS011;54262;44.642;-0.974;2023-12-22T10:08:00;9.88;;;1.83;;
67378;SDS011;54262;44.642;-0.974;2023-12-22T10:10:29;7.50;;;1.90;;
67378;SDS011;54262;44.642;-0.974;2023-12-22T10:12:57;4.65;;;1.70;;
67378;SDS011;54262;44.642;-0.974;2023-12-22T10:15:24;5.43;;;1.75;;
67378;SDS011;54262;44.642;-0.974;2023-12-22T10:17:51;4.53;;;2.25;;
67378;SDS011;54262;44.642;-0.974;2023-12-22T10:20:20;7.55;;;1.63;;
67378;SDS011;54262;44.642;-0.974;2023-12-22T10:22:46;7.15;;;1.83;;
67378;SDS011;54262;44.642;-0.974;2023-12-22T10:25:14;2.83;;;1.13;;
67378;SDS011;54262;44.642;-0.974;2023-12-22T10:27:43;5.20;;;2.47;;
67378;SDS011;54262;44.642;-0.974;2023-12-22T10:30:09;7.78;;;1.70;;
67378;SDS011;54262;44.642;-0.974;2023-12-22T10:32:41;5.97;;;2.90;;
67378;SDS011;54262;44.642;-0.974;2023-12-22T10:35:07;12.55;;;2.22;;
67378;SDS011;54262;44.642;-0.974;2023-12-22T10:37:33;6.75;;;2.22;;
67378;SDS011;54262;44.642;-0.974;2023-12-22T10:39:59;6.60;;;1.73;;
67378;SDS011;54262;44.642;-0.974;2023-12-22T10:42:28;8.52;;;3.33;;
67378;SDS011;54262;44.642;-0.974;2023-12-22T10:44:57;11.27;;;2.47;;
67378;SDS011;54262;44.642;-0.974;2023-12-22T10:47:23;10.15;;;1.70;;
67378;SDS011;54262;44.642;-0.974;2023-12-22T10:49:48;8.45;;;2.65;;
67378;SDS011;54262;44.642;-0.974;2023-12-22T10:52:17;4.80;;;2.33;;
67378;SDS011;54262;44.642;-0.974;2023-12-22T10:54:45;11.82;;;2.05;;
67378;SDS011;54262;44.642;-0.974;2023-12-22T10:57:11;4.82;;;1.80;;
67378;SDS011;54262;44.642;-0.974;2023-12-22T10:59:39;5.32;;;1.55;;
67378;SDS011;54262;44.642;-0.974;2023-12-22T11:02:19;3.30;;;1.92;;
67378;SDS011;54262;44.642;-0.974;2023-12-22T11:04:55;10.10;;;1.63;;
67378;SDS011;54262;44.642;-0.974;2023-12-22T11:07:25;3.22;;;1.58;;
67378;SDS011;54262;44.642;-0.974;2023-12-22T11:09:53;2.55;;;1.25;;
67378;SDS011;54262;44.642;-0.974;2023-12-22T11:12:22;5.35;;;1.70;;
67378;SDS011;54262;44.642;-0.974;2023-12-22T11:14:51;3.83;;;1.00;;
67378;SDS011;54262;44.642;-0.974;2023-12-22T11:17:21;4.45;;;1.50;;
67378;SDS011;54262;44.642;-0.974;2023-12-22T11:19:51;6.72;;;1.40;;
67378;SDS011;54262;44.642;-0.974;2023-12-22T11:22:21;17.20;;;2.08;;
67378;SDS011;54262;44.642;-0.974;2023-12-22T11:24:47;3.90;;;1.40;;
67378;SDS011;54262;44.642;-0.974;2023-12-22T11:27:17;9.93;;;1.73;;
67378;SDS011;54262;44.642;-0.974;2023-12-22T11:29:45;5.35;;;1.58;;
67378;SDS011;54262;44.642;-0.974;2023-12-22T11:32:14;6.93;;;1.80;;
67378;SDS011;54262;44.642;-0.974;2023-12-22T11:34:42;6.10;;;1.48;;
67378;SDS011;54262;44.642;-0.974;2023-12-22T11:37:09;5.32;;;1.55;;
67378;SDS011;54262;44.642;-0.974;2023-12-22T11:39:37;11.93;;;2.22;;
67378;SDS011;54262;44.642;-0.974;2023-12-22T11:42:04;6.45;;;1.75;;
67378;SDS011;54262;44.642;-0.974;2023-12-22T11:44:31;4.30;;;1.70;;
67378;SDS011;54262;44.642;-0.974;2023-12-22T11:47:04;4.47;;;1.40;;
67378;SDS011;54262;44.642;-0.974;2023-12-22T11:49:31;5.10;;;1.23;;
67378;SDS011;54262;44.642;-0.974;2023-12-22T11:51:59;8.30;;;1.52;;
67378;SDS011;54262;44.642;-0.974;2023-12-22T11:54:43;6.00;;;2.25;;
67378;SDS011;54262;44.642;-0.974;2023-12-22T12:00:09;8.38;;;1.70;;
67378;SDS011;54262;44.642;-0.974;2023-12-22T12:02:53;5.10;;;1.48;;
67378;SDS011;54262;44.642;-0.974;2023-12-22T12:05:19;5.38;;;2.10;;
67378;SDS011;54262;44.642;-0.974;2023-12-22T12:07:46;2.58;;;1.23;;
67378;SDS011;54262;44.642;-0.974;2023-12-22T12:13:10;7.25;;;1.73;;
67378;SDS011;54262;44.642;-0.974;2023-12-22T12:15:38;2.47;;;1.35;;
67378;SDS011;54262;44.642;-0.974;2023-12-22T12:18:04;5.47;;;1.70;;
67378;SDS011;54262;44.642;-0.974;2023-12-22T12:20:31;4.53;;;1.38;;
67378;SDS011;54262;44.642;-0.974;2023-12-22T12:23:03;2.80;;;1.42;;
67378;SDS011;54262;44.642;-0.974;2023-12-22T12:25:30;4.95;;;1.02;;
67378;SDS011;54262;44.642;-0.974;2023-12-22T12:28:04;3.45;;;1.00;;
67378;SDS011;54262;44.642;-0.974;2023-12-22T12:30:31;3.60;;;1.30;;
67378;SDS011;54262;44.642;-0.974;2023-12-22T12:33:10;3.13;;;1.25;;
67378;SDS011;54262;44.642;-0.974;2023-12-22T12:35:40;5.60;;;0.80;;
67378;SDS011;54262;44.642;-0.974;2023-12-22T12:38:08;3.35;;;1.20;;
67378;SDS011;54262;44.642;-0.974;2023-12-22T12:40:35;1.98;;;1.13;;
67378;SDS011;54262;44.642;-0.974;2023-12-22T12:43:04;1.33;;;0.88;;
67378;SDS011;54262;44.642;-0.974;2023-12-22T12:45:30;3.17;;;1.08;;
67378;SDS011;54262;44.642;-0.974;2023-12-22T12:50:28;4.00;;;0.82;;
67378;SDS011;54262;44.642;-0.974;2023-12-22T12:52:54;3.25;;;0.95;;
67378;SDS011;54262;44.642;-0.974;2023-12-22T12:55:21;3.85;;;1.00;;
67378;SDS011;54262;44.642;-0.974;2023-12-22T12:57:54;3.80;;;1.15;;
67378;SDS011;54262;44.642;-0.974;2023-12-22T13:02:53;4.45;;;1.00;;
67378;SDS011;54262;44.642;-0.974;2023-12-22T13:05:32;2.70;;;0.80;;
67378;SDS011;54262;44.642;-0.974;2023-12-22T13:08:07;4.38;;;1.00;;
67378;SDS011;54262;44.642;-0.974;2023-12-22T13:10:34;4.85;;;1.75;;
67378;SDS011;54262;44.642;-0.974;2023-12-22T13:12:59;2.30;;;1.10;;
67378;SDS011;54262;44.642;-0.974;2023-12-22T13:15:25;2.78;;;1.00;;
67378;SDS011;54262;44.642;-0.974;2023-12-22T13:17:54;1.88;;;0.80;;
67378;SDS011;54262;44.642;-0.974;2023-12-22T13:20:23;4.07;;;1.17;;
67378;SDS011;54262;44.642;-0.974;2023-12-22T13:22:49;6.28;;;1.00;;
67378;SDS011;54262;44.642;-0.974;2023-12-22T13:25:17;2.13;;;0.80;;
67378;SDS011;54262;44.642;-0.974;2023-12-22T13:27:50;3.92;;;1.10;;
67378;SDS011;54262;44.642;-0.974;2023-12-22T13:30:35;1.17;;;1.08;;
67378;SDS011;54262;44.642;-0.974;2023-12-22T13:33:03;2.60;;;1.38;;
67378;SDS011;54262;44.642;-0.974;2023-12-22T13:35:29;4.82;;;1.05;;
67378;SDS011;54262;44.642;-0.974;2023-12-22T13:37:55;2.00;;;1.10;;
67378;SDS011;54262;44.642;-0.974;2023-12-22T13:40:25;6.85;;;1.20;;
67378;SDS011;54262;44.642;-0.974;2023-12-22T13:42:57;2.10;;;0.95;;
67378;SDS011;54262;44.642;-0.974;2023-12-22T13:45:26;3.33;;;0.85;;
67378;SDS011;54262;44.642;-0.974;2023-12-22T13:47:52;2.63;;;1.00;;
67378;SDS011;54262;44.642;-0.974;2023-12-22T13:50:18;2.63;;;1.10;;
67378;SDS011;54262;44.642;-0.974;2023-12-22T13:52:44;2.55;;;1.13;;
67378;SDS011;54262;44.642;-0.974;2023-12-22T13:55:11;2.42;;;1.50;;
67378;SDS011;54262;44.642;-0.974;2023-12-22T13:57:37;3.20;;;1.27;;
67378;SDS011;54262;44.642;-0.974;2023-12-22T14:02:45;2.33;;;0.88;;
67378;SDS011;54262;44.642;-0.974;2023-12-22T14:05:11;5.60;;;1.13;;
67378;SDS011;54262;44.642;-0.974;2023-12-22T14:07:37;6.22;;;1.05;;
67378;SDS011;54262;44.642;-0.974;2023-12-22T14:10:09;3.60;;;1.00;;
67378;SDS011;54262;44.642;-0.974;2023-12-22T14:12:36;4.53;;;1.20;;
67378;SDS011;54262;44.642;-0.974;2023-12-22T14:15:08;3.70;;;1.30;;
67378;SDS011;54262;44.642;-0.974;2023-12-22T14:17:35;2.22;;;1.17;;
67378;SDS011;54262;44.642;-0.974;2023-12-22T14:20:03;1.40;;;1.05;;
67378;SDS011;54262;44.642;-0.974;2023-12-22T14:22:34;3.20;;;1.10;;
67378;SDS011;54262;44.642;-0.974;2023-12-22T14:25:01;4.18;;;1.60;;
67378;SDS011;54262;44.642;-0.974;2023-12-22T14:27:28;9.95;;;1.60;;
67378;SDS011;54262;44.642;-0.974;2023-12-22T14:29:54;4.82;;;1.73;;
67378;SDS011;54262;44.642;-0.974;2023-12-22T14:32:20;8.35;;;1.35;;
67378;SDS011;54262;44.642;-0.974;2023-12-22T14:34:46;15.32;;;1.60;;
67378;SDS011;54262;44.642;-0.974;2023-12-22T14:37:11;3.05;;;1.40;;
67378;SDS011;54262;44.642;-0.974;2023-12-22T14:39:37;3.13;;;1.27;;
67378;SDS011;54262;44.642;-0.974;2023-12-22T14:42:03;3.08;;;1.30;;
67378;SDS011;54262;44.642;-0.974;2023-12-22T14:44:32;6.47;;;1.42;;
67378;SDS011;54262;44.642;-0.974;2023-12-22T14:46:58;7.68;;;2.17;;
67378;SDS011;54262;44.642;-0.974;2023-12-22T14:49:23;5.38;;;1.48;;
67378;SDS011;54262;44.642;-0.974;2023-12-22T14:51:49;5.13;;;1.55;;